Time;durP1;ratioP1;P1;durP2;ratioP2;P2;SDS_P1;SDS_P2;PMS_P1;PMS_P2;Temp;Humidity;BMP_temperature;BMP_pressure;BME280_temperature;BME280_humidity;BME280_pressure;Samples;Min_cycle;Max_cycle;Signal;HPM_P1;HPM_P2
2021/10/18 00:01:25;;;;;;;6.78;5.32;;;12.10;97.40;;;;;;5048982;28;20401;-81
2021/10/18 00:03:51;;;;;;;9.05;4.68;;;12.10;97.30;;;;;;5040315;28;20657;-80
2021/10/18 00:06:16;;;;;;;11.35;5.40;;;12.10;97.30;;;;;;5046207;28;20025;-80
2021/10/18 00:08:42;;;;;;;9.57;5.03;;;12.10;97.30;;;;;;5043651;28;20052;-80
2021/10/18 00:11:07;;;;;;;9.63;4.55;;;12.10;97.30;;;;;;5034394;28;20026;-80
2021/10/18 00:13:33;;;;;;;8.43;4.90;;;12.00;97.30;;;;;;5031084;28;20061;-81
2021/10/18 00:15:59;;;;;;;9.48;5.43;;;12.00;97.30;;;;;;5033567;28;20029;-78
2021/10/18 00:18:25;;;;;;;10.73;5.57;;;12.00;97.30;;;;;;5043108;28;20493;-80
2021/10/18 00:20:50;;;;;;;6.30;4.60;;;12.00;97.30;;;;;;5041255;28;20052;-79
2021/10/18 00:23:16;;;;;;;9.73;4.53;;;12.00;97.30;;;;;;5040590;28;20061;-78
2021/10/18 00:25:42;;;;;;;6.88;4.60;;;12.00;97.30;;;;;;5041380;28;20085;-79
2021/10/18 00:28:07;;;;;;;7.63;5.18;;;12.00;97.30;;;;;;5047661;28;20061;-78
2021/10/18 00:30:33;;;;;;;5.75;4.45;;;12.00;97.40;;;;;;5041624;28;20099;-78
2021/10/18 00:32:58;;;;;;;6.68;4.28;;;12.00;97.40;;;;;;5035085;28;20056;-79
2021/10/18 00:35:24;;;;;;;12.05;4.78;;;12.00;97.50;;;;;;5037174;28;20029;-78
2021/10/18 00:37:50;;;;;;;7.78;4.85;;;12.00;97.50;;;;;;5036564;28;20076;-79
2021/10/18 00:40:15;;;;;;;7.32;4.40;;;12.00;97.60;;;;;;5037656;28;20037;-78
2021/10/18 00:42:41;;;;;;;11.70;5.22;;;11.90;97.60;;;;;;5038452;28;20426;-78
2021/10/18 00:45:08;;;;;;;10.35;4.47;;;11.90;97.60;;;;;;5036375;28;20028;-79
2021/10/18 00:47:35;;;;;;;9.20;4.50;;;12.00;97.70;;;;;;5031647;28;20054;-81
2021/10/18 00:50:00;;;;;;;7.70;4.28;;;11.90;97.70;;;;;;5041570;28;20173;-79
2021/10/18 00:52:26;;;;;;;5.30;4.30;;;11.90;97.70;;;;;;5042170;28;20112;-79
2021/10/18 00:54:53;;;;;;;12.02;5.15;;;11.90;97.80;;;;;;5034256;28;20021;-79
2021/10/18 00:57:19;;;;;;;6.90;5.00;;;11.90;97.80;;;;;;5029636;28;20025;-81
2021/10/18 00:59:45;;;;;;;7.90;4.43;;;11.90;97.80;;;;;;5030687;28;20025;-80
2021/10/18 01:02:12;;;;;;;7.53;4.60;;;11.90;97.80;;;;;;5031117;28;20064;-80
2021/10/18 01:04:38;;;;;;;6.50;4.38;;;12.00;97.90;;;;;;5042642;28;20123;-80
2021/10/18 01:07:04;;;;;;;6.75;4.60;;;12.00;97.90;;;;;;5029940;28;20041;-81
2021/10/18 01:09:30;;;;;;;11.23;5.18;;;12.00;97.90;;;;;;5034895;28;20383;-79
2021/10/18 01:11:55;;;;;;;8.05;4.78;;;12.00;97.90;;;;;;5026792;28;20022;-80
2021/10/18 01:14:21;;;;;;;9.48;4.88;;;11.90;97.80;;;;;;5028799;28;20397;-81
2021/10/18 01:16:47;;;;;;;11.00;4.30;;;11.90;97.80;;;;;;5043273;28;20448;-81
2021/10/18 01:19:22;;;;;;;14.57;5.30;;;11.90;97.70;;;;;;5029636;28;20036;-80
2021/10/18 01:21:49;;;;;;;7.68;4.93;;;11.90;97.60;;;;;;5031079;28;20047;-81
2021/10/18 01:24:15;;;;;;;11.43;4.90;;;11.90;97.50;;;;;;5030350;28;20033;-79
2021/10/18 01:26:41;;;;;;;11.18;5.45;;;11.90;97.40;;;;;;5033660;28;20102;-79
2021/10/18 01:29:06;;;;;;;8.57;4.78;;;11.90;97.40;;;;;;5032038;28;20103;-79
2021/10/18 01:31:33;;;;;;;8.85;4.72;;;11.90;97.40;;;;;;5030672;28;20033;-80
2021/10/18 01:33:58;;;;;;;8.82;4.97;;;12.00;97.40;;;;;;5041234;28;20040;-80
2021/10/18 01:36:24;;;;;;;9.50;5.07;;;11.90;97.40;;;;;;5036800;28;20044;-80
2021/10/18 01:38:50;;;;;;;10.90;4.80;;;11.90;97.40;;;;;;5034647;28;20406;-80
2021/10/18 01:41:15;;;;;;;14.75;5.65;;;11.90;97.40;;;;;;5043887;28;20033;-80
2021/10/18 01:43:41;;;;;;;6.72;4.20;;;11.90;97.40;;;;;;5036809;28;20075;-80
2021/10/18 01:46:07;;;;;;;12.73;5.30;;;11.90;97.30;;;;;;5029476;28;20064;-80
2021/10/18 01:48:32;;;;;;;7.18;4.72;;;11.90;97.30;;;;;;5042621;28;20529;-80
2021/10/18 01:50:58;;;;;;;7.40;5.00;;;11.90;97.30;;;;;;5035399;28;20041;-80
2021/10/18 01:53:23;;;;;;;7.78;5.25;;;11.90;97.20;;;;;;5032441;28;20090;-79
2021/10/18 01:55:49;;;;;;;10.70;5.15;;;11.90;97.20;;;;;;5034102;28;20029;-79
2021/10/18 01:58:15;;;;;;;7.20;4.95;;;11.90;97.30;;;;;;5042607;28;20065;-79
2021/10/18 02:00:42;;;;;;;7.15;4.45;;;11.90;97.30;;;;;;5031344;28;20037;-79
2021/10/18 02:03:08;;;;;;;9.75;4.93;;;11.90;97.40;;;;;;5034495;28;20039;-79
2021/10/18 02:05:34;;;;;;;6.20;4.72;;;11.90;97.40;;;;;;5040492;28;20694;-79
2021/10/18 02:08:00;;;;;;;9.77;5.20;;;11.90;97.50;;;;;;5032307;28;20037;-79
2021/10/18 02:10:25;;;;;;;7.25;5.28;;;11.90;97.20;;;;;;5031513;28;20033;-79
2021/10/18 02:12:51;;;;;;;11.77;5.55;;;11.90;97.40;;;;;;5027748;28;20079;-79
2021/10/18 02:15:17;;;;;;;6.65;5.00;;;11.90;97.00;;;;;;5038496;28;20398;-78
2021/10/18 02:17:44;;;;;;;8.63;4.80;;;11.90;97.00;;;;;;5037952;28;20041;-79
2021/10/18 02:20:11;;;;;;;9.05;5.47;;;11.90;97.10;;;;;;5040164;28;20032;-79
2021/10/18 02:22:37;;;;;;;11.90;5.47;;;11.90;97.20;;;;;;5036894;28;20128;-79
2021/10/18 02:25:05;;;;;;;9.35;5.32;;;11.80;97.20;;;;;;5037934;28;20033;-79
2021/10/18 02:27:31;;;;;;;9.00;5.18;;;11.70;97.20;;;;;;5032499;28;21781;-79
2021/10/18 02:29:57;;;;;;;9.77;5.10;;;11.70;97.30;;;;;;5031169;28;20021;-79
2021/10/18 02:32:23;;;;;;;9.23;5.78;;;11.80;97.40;;;;;;5029651;28;20032;-78
2021/10/18 02:34:48;;;;;;;7.78;5.45;;;11.80;97.50;;;;;;5029279;28;20423;-79
2021/10/18 02:37:14;;;;;;;9.27;5.70;;;11.80;97.50;;;;;;5033808;28;20033;-79
2021/10/18 02:39:39;;;;;;;9.02;5.25;;;11.80;97.50;;;;;;5041866;28;20024;-79
2021/10/18 02:42:05;;;;;;;9.80;6.10;;;11.80;97.50;;;;;;5035326;28;20056;-79
2021/10/18 02:44:30;;;;;;;10.07;5.82;;;11.80;97.50;;;;;;5033573;28;20037;-79
2021/10/18 02:46:56;;;;;;;13.85;5.70;;;11.90;97.50;;;;;;5035264;28;20128;-79
2021/10/18 02:49:21;;;;;;;9.25;5.57;;;11.90;97.50;;;;;;5029737;28;20033;-78
2021/10/18 02:51:48;;;;;;;9.15;4.80;;;11.90;97.60;;;;;;5028310;28;20549;-79
2021/10/18 02:54:14;;;;;;;9.20;4.95;;;11.80;97.60;;;;;;5033211;28;20385;-79
2021/10/18 02:56:39;;;;;;;9.35;5.50;;;11.80;97.50;;;;;;5029421;28;20026;-79
2021/10/18 02:59:05;;;;;;;7.40;5.80;;;11.80;97.50;;;;;;5026323;28;20474;-78
2021/10/18 03:01:30;;;;;;;9.98;5.72;;;11.80;97.50;;;;;;5018536;28;20041;-78
2021/10/18 03:03:56;;;;;;;9.23;5.47;;;11.80;97.50;;;;;;5009180;28;20034;-78
2021/10/18 03:06:21;;;;;;;11.80;6.28;;;11.80;97.50;;;;;;5019908;28;20097;-79
2021/10/18 03:08:47;;;;;;;10.18;5.47;;;11.80;97.80;;;;;;5025409;28;20081;-80
2021/10/18 03:11:13;;;;;;;7.75;5.40;;;11.80;97.60;;;;;;5027044;28;20056;-79
2021/10/18 03:13:38;;;;;;;13.27;5.07;;;11.80;97.50;;;;;;5025478;28;20025;-78
2021/10/18 03:16:04;;;;;;;6.07;5.07;;;11.80;97.50;;;;;;5027114;28;20091;-79
2021/10/18 03:18:30;;;;;;;11.25;6.10;;;11.80;97.50;;;;;;5027326;28;20039;-80
2021/10/18 03:20:55;;;;;;;7.93;5.80;;;11.80;97.60;;;;;;5027123;28;20033;-80
2021/10/18 03:23:20;;;;;;;9.95;6.05;;;11.80;97.70;;;;;;5020296;28;20033;-80
2021/10/18 03:25:46;;;;;;;10.45;5.55;;;11.80;97.70;;;;;;5019072;28;20026;-80
2021/10/18 03:28:11;;;;;;;6.78;5.25;;;11.80;97.70;;;;;;5025059;28;20046;-80
2021/10/18 03:30:37;;;;;;;5.78;4.88;;;11.80;97.70;;;;;;5017183;28;20432;-81
2021/10/18 03:33:02;;;;;;;7.20;4.60;;;11.80;97.70;;;;;;5027648;28;20029;-80
2021/10/18 03:35:28;;;;;;;7.72;5.70;;;11.80;97.80;;;;;;5027294;28;20507;-79
2021/10/18 03:37:54;;;;;;;12.88;5.22;;;11.80;97.80;;;;;;5034558;28;20046;-79
2021/10/18 03:40:19;;;;;;;18.98;5.97;;;11.70;97.80;;;;;;5030960;28;20049;-79
2021/10/18 03:42:45;;;;;;;9.20;5.25;;;11.80;98.10;;;;;;5039778;28;20033;-78
2021/10/18 03:45:12;;;;;;;7.88;5.85;;;11.80;97.90;;;;;;5036282;28;20784;-79
2021/10/18 03:47:38;;;;;;;9.18;5.38;;;11.70;97.90;;;;;;5029564;28;20167;-79
2021/10/18 03:50:04;;;;;;;7.10;5.43;;;11.80;97.80;;;;;;5028622;28;20112;-79
2021/10/18 03:52:30;;;;;;;8.20;5.57;;;11.80;97.80;;;;;;5029010;28;20029;-78
2021/10/18 03:54:56;;;;;;;18.42;6.32;;;11.80;97.90;;;;;;5033677;28;20041;-78
2021/10/18 03:57:21;;;;;;;11.07;5.90;;;11.80;97.90;;;;;;5025752;28;20036;-79
2021/10/18 03:59:47;;;;;;;7.93;5.38;;;11.70;97.90;;;;;;5045994;28;20112;-79
2021/10/18 04:02:14;;;;;;;9.57;5.55;;;11.70;97.90;;;;;;5029613;28;20732;-80
2021/10/18 04:04:39;;;;;;;9.55;5.50;;;11.70;98.10;;;;;;5033987;28;20021;-80
2021/10/18 04:07:05;;;;;;;9.02;4.70;;;11.70;97.70;;;;;;5028496;28;20048;-78
2021/10/18 04:09:31;;;;;;;8.55;5.03;;;11.70;97.90;;;;;;5027528;28;20037;-79
2021/10/18 04:11:56;;;;;;;7.22;5.07;;;11.70;97.70;;;;;;5029706;28;20120;-78
2021/10/18 04:14:22;;;;;;;7.65;5.43;;;11.70;97.70;;;;;;5027439;28;20375;-80
2021/10/18 04:16:47;;;;;;;10.38;5.30;;;11.70;97.70;;;;;;5030684;28;20029;-79
2021/10/18 04:19:13;;;;;;;10.43;5.55;;;11.70;97.60;;;;;;5037376;28;20533;-79
2021/10/18 04:21:39;;;;;;;10.32;5.53;;;11.70;97.60;;;;;;5032018;28;20099;-80
2021/10/18 04:24:04;;;;;;;8.02;5.95;;;11.70;97.60;;;;;;5030821;28;20037;-80
2021/10/18 04:26:30;;;;;;;8.80;5.13;;;11.60;97.30;;;;;;5029960;28;20422;-80
2021/10/18 04:28:56;;;;;;;8.77;4.75;;;11.60;97.30;;;;;;5018487;28;20088;-79
2021/10/18 04:31:22;;;;;;;10.00;5.75;;;11.60;97.40;;;;;;5028173;28;20029;-80
2021/10/18 04:33:48;;;;;;;13.73;5.32;;;11.60;97.40;;;;;;5029993;28;20043;-82
2021/10/18 04:36:13;;;;;;;8.48;5.63;;;11.60;97.50;;;;;;5028684;28;20029;-79
2021/10/18 04:38:39;;;;;;;7.28;5.22;;;11.60;97.40;;;;;;5026882;28;20033;-78
2021/10/18 04:41:04;;;;;;;11.35;6.35;;;11.60;97.40;;;;;;5021893;28;20030;-80
2021/10/18 04:43:29;;;;;;;6.80;5.28;;;11.60;97.40;;;;;;5035822;28;20116;-79
2021/10/18 04:45:55;;;;;;;8.45;4.72;;;11.60;97.40;;;;;;5028875;28;20041;-79
2021/10/18 04:48:20;;;;;;;7.53;5.05;;;11.50;97.40;;;;;;5046775;28;20045;-79
2021/10/18 04:50:46;;;;;;;9.52;5.38;;;11.50;97.40;;;;;;5043923;28;20486;-80
2021/10/18 04:53:11;;;;;;;10.40;5.55;;;11.50;97.40;;;;;;5028560;28;20406;-79
2021/10/18 04:55:37;;;;;;;6.93;5.05;;;11.50;97.30;;;;;;5027481;28;20033;-80
2021/10/18 04:58:04;;;;;;;13.43;4.68;;;11.50;97.40;;;;;;5027245;28;20132;-79
2021/10/18 05:00:42;;;;;;;6.63;5.50;;;11.50;97.40;;;;;;5028138;28;20602;-80
2021/10/18 05:03:08;;;;;;;11.23;5.15;;;11.50;97.50;;;;;;5037609;28;20029;-78
2021/10/18 05:05:35;;;;;;;10.43;5.60;;;11.50;97.50;;;;;;5029095;28;20041;-78
2021/10/18 05:08:04;;;;;;;7.43;5.30;;;11.50;97.60;;;;;;5027177;28;20030;-77
2021/10/18 05:10:30;;;;;;;8.55;5.45;;;11.50;97.60;;;;;;5026507;28;20025;-77
2021/10/18 05:12:56;;;;;;;6.93;5.53;;;11.50;97.60;;;;;;5026999;28;20122;-78
2021/10/18 05:15:22;;;;;;;11.63;5.68;;;11.50;97.60;;;;;;5024067;28;20114;-78
2021/10/18 05:17:47;;;;;;;7.32;4.80;;;11.50;97.60;;;;;;5027231;28;20041;-77
2021/10/18 05:20:13;;;;;;;5.18;4.65;;;11.50;97.50;;;;;;5027928;28;20030;-78
2021/10/18 05:22:38;;;;;;;7.75;4.45;;;11.40;97.50;;;;;;5025226;28;20037;-78
2021/10/18 05:25:04;;;;;;;8.68;4.40;;;11.40;97.50;;;;;;5025311;28;20044;-78
2021/10/18 05:27:29;;;;;;;7.63;5.25;;;11.40;97.50;;;;;;5025970;28;20041;-78
2021/10/18 05:29:55;;;;;;;7.80;5.47;;;11.40;97.40;;;;;;5025778;28;20869;-78
2021/10/18 05:32:20;;;;;;;8.25;5.45;;;11.40;97.40;;;;;;5022389;28;20048;-78
2021/10/18 05:34:46;;;;;;;7.90;5.07;;;11.40;97.40;;;;;;5025739;28;20041;-77
2021/10/18 05:37:12;;;;;;;6.38;5.05;;;11.40;97.50;;;;;;5012972;28;20041;-80
2021/10/18 05:39:37;;;;;;;11.00;5.68;;;11.40;97.60;;;;;;5025952;28;20727;-81
2021/10/18 05:42:03;;;;;;;10.60;5.47;;;11.40;97.60;;;;;;5023437;28;20061;-80
2021/10/18 05:44:28;;;;;;;7.68;4.85;;;11.40;97.60;;;;;;5037443;28;20107;-78
2021/10/18 05:46:54;;;;;;;8.95;5.72;;;11.40;97.70;;;;;;5014948;28;20057;-79
2021/10/18 05:49:19;;;;;;;9.55;6.38;;;11.40;97.80;;;;;;5036288;28;20024;-77
2021/10/18 05:51:45;;;;;;;9.43;6.22;;;11.30;97.90;;;;;;5028612;28;20038;-78
2021/10/18 05:54:10;;;;;;;11.02;5.72;;;11.30;98.00;;;;;;5025566;28;20576;-78
2021/10/18 05:56:36;;;;;;;7.03;4.88;;;11.40;98.10;;;;;;5026350;28;20037;-79
2021/10/18 05:59:01;;;;;;;14.00;6.35;;;11.30;98.10;;;;;;5025833;28;20483;-79
2021/10/18 06:01:27;;;;;;;8.20;5.65;;;11.30;98.10;;;;;;5027099;28;20037;-78
2021/10/18 06:03:53;;;;;;;10.45;6.20;;;11.30;98.20;;;;;;5026269;28;20438;-80
2021/10/18 06:06:20;;;;;;;9.52;5.95;;;11.30;98.20;;;;;;5025826;28;20036;-78
2021/10/18 06:08:47;;;;;;;7.22;4.65;;;11.30;98.50;;;;;;5023726;28;20034;-78
2021/10/18 06:11:16;;;;;;;8.27;5.78;;;11.30;98.30;;;;;;5039622;28;20033;-80
2021/10/18 06:13:41;;;;;;;11.38;5.28;;;11.30;98.30;;;;;;5027290;28;20337;-80
2021/10/18 06:16:07;;;;;;;13.07;6.00;;;11.30;98.20;;;;;;5021217;28;20112;-80
2021/10/18 06:18:32;;;;;;;8.25;5.55;;;11.30;98.00;;;;;;5025474;28;20126;-80
2021/10/18 06:20:58;;;;;;;12.32;6.25;;;11.30;98.00;;;;;;5022471;28;20030;-81
2021/10/18 06:23:25;;;;;;;12.85;5.65;;;11.30;97.80;;;;;;5025770;28;20410;-80
2021/10/18 06:25:50;;;;;;;7.85;5.80;;;11.30;97.80;;;;;;5021963;28;20017;-79
2021/10/18 06:28:16;;;;;;;10.60;5.40;;;11.30;97.70;;;;;;5022106;28;20045;-81
2021/10/18 06:30:42;;;;;;;8.95;5.30;;;11.20;97.60;;;;;;5023728;28;20037;-78
2021/10/18 06:33:08;;;;;;;10.43;5.55;;;11.20;97.50;;;;;;5019111;28;20038;-79
2021/10/18 06:35:35;;;;;;;14.10;5.68;;;11.10;97.50;;;;;;5023752;28;20033;-80
2021/10/18 06:38:01;;;;;;;7.63;5.30;;;11.00;97.40;;;;;;5024303;28;20095;-78
2021/10/18 06:40:27;;;;;;;17.00;6.82;;;11.00;97.50;;;;;;5024924;28;20033;-78
2021/10/18 06:42:52;;;;;;;7.35;5.85;;;10.90;97.60;;;;;;5022474;28;20033;-80
2021/10/18 06:45:18;;;;;;;10.98;6.03;;;11.00;97.70;;;;;;5023521;28;20665;-78
2021/10/18 06:47:44;;;;;;;14.98;5.75;;;10.90;97.60;;;;;;5024182;28;20067;-79
2021/10/18 06:50:10;;;;;;;7.97;5.82;;;10.90;97.70;;;;;;5026123;28;20033;-78
2021/10/18 06:52:42;;;;;;;8.88;5.25;;;10.90;97.70;;;;;;5025907;28;20036;-78
2021/10/18 06:55:10;;;;;;;14.55;6.07;;;10.90;97.80;;;;;;5022786;28;20437;-78
2021/10/18 06:57:36;;;;;;;9.73;6.40;;;10.90;97.80;;;;;;5023101;28;20061;-78
2021/10/18 07:00:06;;;;;;;8.77;5.70;;;10.90;97.80;;;;;;5024508;28;20468;-78
2021/10/18 07:02:32;;;;;;;11.30;5.78;;;10.90;97.80;;;;;;5022837;28;20025;-78
2021/10/18 07:04:57;;;;;;;9.55;5.65;;;10.90;97.80;;;;;;5021720;28;20393;-77
2021/10/18 07:07:26;;;;;;;8.82;5.93;;;10.90;97.70;;;;;;5025571;28;20052;-79
2021/10/18 07:09:59;;;;;;;17.70;6.05;;;10.80;97.60;;;;;;5015240;28;20105;-79
2021/10/18 07:12:26;;;;;;;11.02;5.70;;;10.80;97.60;;;;;;5025293;28;20474;-80
2021/10/18 07:14:51;;;;;;;9.77;6.03;;;10.80;97.60;;;;;;5024028;28;20627;-79
2021/10/18 07:17:17;;;;;;;9.95;5.43;;;10.80;97.60;;;;;;5028117;28;20052;-79
2021/10/18 07:19:42;;;;;;;14.18;6.18;;;10.80;97.70;;;;;;5024786;28;20041;-79
2021/10/18 07:22:08;;;;;;;6.90;4.80;;;10.90;97.70;;;;;;5024873;28;20038;-79
2021/10/18 07:24:33;;;;;;;7.88;5.47;;;10.90;97.70;;;;;;5021515;28;20037;-79
2021/10/18 07:26:59;;;;;;;9.07;5.20;;;10.90;97.60;;;;;;5024615;28;20123;-79
2021/10/18 07:29:24;;;;;;;13.18;5.93;;;10.90;97.60;;;;;;5028224;28;20040;-79
2021/10/18 07:31:50;;;;;;;12.32;5.75;;;11.00;97.50;;;;;;5025414;28;20061;-79
2021/10/18 07:34:18;;;;;;;8.57;5.35;;;11.00;97.50;;;;;;5024397;28;20048;-79
2021/10/18 07:36:51;;;;;;;14.75;6.00;;;11.10;97.50;;;;;;5026008;28;20060;-79
2021/10/18 07:39:19;;;;;;;10.85;5.43;;;11.10;97.50;;;;;;5023642;28;20463;-80
2021/10/18 07:41:44;;;;;;;7.85;5.30;;;11.10;97.30;;;;;;5033783;28;20034;-81
2021/10/18 07:44:10;;;;;;;6.25;4.78;;;11.20;97.30;;;;;;5018089;28;20052;-80
2021/10/18 07:46:36;;;;;;;11.05;4.80;;;11.20;97.20;;;;;;5022969;28;20049;-80
2021/10/18 07:49:02;;;;;;;8.80;5.35;;;11.20;97.10;;;;;;5026436;28;20052;-82
2021/10/18 07:51:27;;;;;;;8.38;5.40;;;11.20;97.00;;;;;;5026232;28;20117;-80
2021/10/18 07:53:53;;;;;;;8.82;5.10;;;11.30;96.80;;;;;;5029864;28;20530;-80
2021/10/18 07:56:19;;;;;;;9.02;4.85;;;11.30;96.70;;;;;;5024732;28;20041;-80
2021/10/18 07:58:44;;;;;;;7.22;4.72;;;11.40;96.70;;;;;;5027695;28;20101;-79
2021/10/18 08:01:10;;;;;;;8.25;4.80;;;11.40;96.60;;;;;;5021232;28;20669;-79
2021/10/18 08:03:35;;;;;;;8.98;4.50;;;11.40;96.00;;;;;;5019909;28;20494;-80
2021/10/18 08:06:01;;;;;;;6.22;4.15;;;11.50;96.00;;;;;;5028888;28;20025;-80
2021/10/18 08:08:32;;;;;;;8.27;4.78;;;11.50;96.00;;;;;;5025279;28;20809;-80
2021/10/18 08:10:58;;;;;;;15.88;4.95;;;11.60;96.00;;;;;;5026849;28;20025;-80
2021/10/18 08:13:24;;;;;;;7.38;4.75;;;11.60;95.80;;;;;;5026133;28;20416;-80
2021/10/18 08:15:51;;;;;;;6.90;4.85;;;11.70;95.50;;;;;;5025994;28;20041;-80
2021/10/18 08:18:17;;;;;;;8.00;5.00;;;11.70;95.40;;;;;;5028203;28;20042;-80
2021/10/18 08:20:43;;;;;;;7.18;4.70;;;11.80;95.30;;;;;;5026396;28;20052;-80
2021/10/18 08:23:09;;;;;;;6.95;4.53;;;11.90;95.30;;;;;;5027766;28;20041;-80
2021/10/18 08:25:35;;;;;;;6.20;4.15;;;11.90;95.20;;;;;;5027817;28;20032;-80
2021/10/18 08:28:00;;;;;;;5.00;3.92;;;12.00;95.10;;;;;;5027482;28;20049;-81
2021/10/18 08:30:26;;;;;;;5.35;3.80;;;12.10;94.80;;;;;;5027900;28;20025;-81
2021/10/18 08:32:51;;;;;;;6.53;3.83;;;12.20;94.50;;;;;;5028425;28;20033;-81
2021/10/18 08:35:19;;;;;;;9.23;3.55;;;12.20;93.40;;;;;;5027716;28;20061;-80
2021/10/18 08:40:33;;;;;;;6.30;3.78;;;12.40;93.40;;;;;;5028509;28;20065;-79
2021/10/18 08:43:07;;;;;;;6.00;3.88;;;12.40;93.00;;;;;;5028062;28;20083;-78
2021/10/18 08:45:32;;;;;;;4.95;3.33;;;12.50;92.80;;;;;;5028799;28;20060;-79
2021/10/18 08:47:58;;;;;;;6.38;3.40;;;12.60;92.70;;;;;;5027453;28;20068;-80
2021/10/18 08:50:25;;;;;;;5.18;3.65;;;12.70;92.30;;;;;;5029671;28;20076;-81
2021/10/18 08:52:51;;;;;;;5.40;3.05;;;12.80;92.00;;;;;;5028602;28;20022;-79
2021/10/18 08:55:17;;;;;;;6.13;3.25;;;12.90;91.80;;;;;;5028055;28;20033;-80
2021/10/18 08:57:42;;;;;;;4.15;2.65;;;13.00;91.70;;;;;;5025991;28;20102;-80
2021/10/18 09:00:38;;;;;;;5.40;3.13;;;13.10;91.60;;;;;;5028479;28;20037;-80
2021/10/18 09:03:31;;;;;;;5.10;2.60;;;13.20;91.50;;;;;;5026405;28;20117;-80
2021/10/18 09:06:14;;;;;;;7.55;3.15;;;13.30;91.30;;;;;;5028669;28;20079;-82
2021/10/18 09:08:49;;;;;;;5.60;3.05;;;13.40;91.00;;;;;;5027583;28;20038;-81
2021/10/18 09:11:19;;;;;;;3.80;2.60;;;13.40;91.10;;;;;;5040984;28;20040;-79
2021/10/18 09:13:51;;;;;;;5.80;3.38;;;13.50;90.90;;;;;;5036470;28;20049;-80
2021/10/18 09:16:37;;;;;;;4.75;2.85;;;13.60;90.90;;;;;;5026983;28;20041;-81
2021/10/18 09:19:11;;;;;;;5.63;2.88;;;13.70;90.80;;;;;;5027329;28;20088;-79
2021/10/18 09:21:45;;;;;;;6.45;2.80;;;13.80;90.50;;;;;;5027234;28;20032;-81
2021/10/18 09:24:13;;;;;;;4.93;2.72;;;14.00;90.20;;;;;;5031028;28;20030;-80
2021/10/18 09:26:41;;;;;;;4.93;2.50;;;14.00;90.50;;;;;;5031437;28;20529;-80
2021/10/18 09:29:09;;;;;;;4.88;2.70;;;14.10;90.30;;;;;;5029774;28;20034;-79
2021/10/18 09:31:35;;;;;;;6.70;3.08;;;14.20;89.90;;;;;;5031284;28;20041;-80
2021/10/18 09:34:18;;;;;;;4.03;1.95;;;14.30;90.20;;;;;;5030305;28;20029;-80
2021/10/18 09:36:45;;;;;;;5.20;2.25;;;14.40;88.50;;;;;;5027759;28;20430;-80
2021/10/18 09:39:15;;;;;;;4.60;2.75;;;14.50;88.30;;;;;;5027089;28;20054;-80
2021/10/18 09:42:02;;;;;;;3.67;2.10;;;14.60;88.40;;;;;;5026412;28;20064;-80
2021/10/18 10:52:40;;;;;;;4.47;3.03;;;15.90;83.00;;;;;;5025159;28;20087;-79
2021/10/18 10:55:23;;;;;;;5.47;3.00;;;15.90;83.40;;;;;;5025561;28;20026;-80
2021/10/18 10:57:54;;;;;;;6.97;3.60;;;16.00;83.50;;;;;;5016928;28;20037;-80
2021/10/18 11:00:33;;;;;;;4.28;3.25;;;16.00;83.10;;;;;;5025142;28;20391;-80
2021/10/18 11:03:31;;;;;;;6.53;3.45;;;16.10;82.70;;;;;;5025423;28;20029;-79
2021/10/18 11:06:04;;;;;;;7.70;3.53;;;16.10;82.70;;;;;;5025358;28;20029;-80
2021/10/18 11:08:46;;;;;;;5.72;3.92;;;16.10;82.50;;;;;;5024649;28;20040;-81
2021/10/18 11:11:20;;;;;;;7.22;4.45;;;16.20;83.20;;;;;;5025005;28;20482;-80
2021/10/18 11:13:57;;;;;;;5.47;3.40;;;16.20;82.50;;;;;;5025009;28;20038;-80
2021/10/18 11:16:28;;;;;;;6.07;4.15;;;16.20;84.10;;;;;;5025013;28;20443;-80
2021/10/18 11:18:57;;;;;;;5.72;4.05;;;16.40;82.20;;;;;;5015570;28;20034;-81
2021/10/18 11:21:29;;;;;;;6.13;4.32;;;16.40;83.10;;;;;;5031188;28;20486;-80
2021/10/18 11:24:11;;;;;;;5.97;3.65;;;16.50;83.60;;;;;;5023775;28;20036;-81
2021/10/18 11:26:40;;;;;;;5.80;3.55;;;16.60;81.80;;;;;;5012424;28;20837;-81
2021/10/18 11:29:09;;;;;;;8.05;3.97;;;16.60;81.90;;;;;;5006832;28;20692;-79
2021/10/18 11:31:40;;;;;;;8.63;3.95;;;16.60;81.80;;;;;;5007037;28;20026;-81
2021/10/18 11:34:20;;;;;;;4.97;3.67;;;16.70;82.10;;;;;;5023988;28;20026;-80
2021/10/18 11:36:49;;;;;;;7.05;3.45;;;16.80;82.00;;;;;;5025925;28;20082;-81
2021/10/18 11:39:25;;;;;;;5.75;3.38;;;16.90;83.80;;;;;;5025610;28;20415;-80
2021/10/18 11:42:13;;;;;;;5.90;3.38;;;17.10;82.10;;;;;;5026298;28;20030;-81
2021/10/18 11:44:50;;;;;;;7.28;4.25;;;17.20;81.20;;;;;;5025225;28;20068;-80
2021/10/18 11:47:27;;;;;;;7.18;3.92;;;17.40;82.00;;;;;;5026361;28;20030;-80
2021/10/18 11:50:10;;;;;;;5.68;4.03;;;17.40;80.00;;;;;;5026557;28;20034;-82
2021/10/18 11:52:41;;;;;;;6.30;4.40;;;17.50;80.40;;;;;;5022798;28;20026;-80
2021/10/18 11:55:08;;;;;;;8.32;4.38;;;17.50;80.80;;;;;;5023723;28;20033;-81
2021/10/18 11:57:39;;;;;;;7.20;4.55;;;17.60;79.90;;;;;;5030529;28;20039;-83
2021/10/18 12:00:07;;;;;;;6.30;3.97;;;17.70;79.30;;;;;;5021898;28;20467;-81
2021/10/18 12:02:33;;;;;;;7.85;4.13;;;17.70;79.00;;;;;;5008619;28;20097;-81
2021/10/18 12:05:01;;;;;;;6.40;3.72;;;17.70;78.70;;;;;;5040433;28;20017;-80
2021/10/18 12:07:46;;;;;;;6.30;3.83;;;17.70;77.80;;;;;;5029392;28;20119;-81
2021/10/18 12:10:26;;;;;;;6.35;4.07;;;17.80;78.00;;;;;;5026909;28;20032;-81
2021/10/18 12:13:23;;;;;;;5.43;3.30;;;17.80;79.00;;;;;;5027472;28;20045;-82
2021/10/18 12:15:50;;;;;;;5.45;3.65;;;17.90;76.60;;;;;;5037395;28;20678;-82
2021/10/18 12:18:25;;;;;;;6.57;3.58;;;17.90;76.60;;;;;;5012631;28;20026;-80
2021/10/18 12:20:54;;;;;;;3.75;2.55;;;17.90;78.20;;;;;;5023264;28;20042;-80
2021/10/18 12:23:32;;;;;;;4.43;2.83;;;18.00;77.40;;;;;;5027485;28;20033;-81
2021/10/18 12:26:20;;;;;;;4.60;2.55;;;18.10;76.70;;;;;;5040198;28;20021;-81
2021/10/18 12:28:47;;;;;;;5.78;3.30;;;18.10;76.80;;;;;;5021211;28;20044;-81
2021/10/18 12:31:44;;;;;;;4.90;2.95;;;18.20;76.10;;;;;;5027243;28;20026;-81
2021/10/18 12:34:30;;;;;;;4.22;3.08;;;18.20;77.60;;;;;;5027271;28;20037;-82
2021/10/18 12:37:01;;;;;;;5.40;2.72;;;18.20;77.30;;;;;;5019814;28;20078;-82
2021/10/18 12:39:56;;;;;;;5.00;2.92;;;18.20;76.60;;;;;;5022810;28;20029;-83
2021/10/18 12:42:25;;;;;;;5.70;2.97;;;18.10;77.20;;;;;;5022913;28;20100;-82
2021/10/18 12:45:04;;;;;;;3.20;2.58;;;18.20;78.50;;;;;;5028261;28;20030;-81
2021/10/18 12:47:29;;;;;;;3.65;2.88;;;18.20;77.50;;;;;;5028169;28;20079;-82
2021/10/18 12:50:05;;;;;;;4.40;3.00;;;18.20;77.50;;;;;;5041510;28;20049;-79
2021/10/18 12:52:33;;;;;;;4.22;2.75;;;18.20;76.70;;;;;;5033371;28;20065;-80
2021/10/18 12:55:08;;;;;;;4.45;3.08;;;18.20;77.70;;;;;;5011856;28;20386;-81
2021/10/18 12:57:35;;;;;;;5.32;2.70;;;18.20;77.50;;;;;;5025237;28;20033;-82
2021/10/18 13:00:11;;;;;;;4.90;2.15;;;18.20;75.70;;;;;;5029417;28;20502;-81
2021/10/18 13:02:38;;;;;;;3.72;2.13;;;18.20;75.90;;;;;;5018720;28;20032;-81
2021/10/18 13:05:21;;;;;;;2.22;1.80;;;18.20;76.90;;;;;;5031451;28;20037;-78
2021/10/18 13:07:59;;;;;;;3.83;1.80;;;18.20;75.80;;;;;;5024000;28;20038;-82
2021/10/18 13:10:36;;;;;;;5.93;1.60;;;18.20;74.90;;;;;;5011516;28;20022;-81
2021/10/18 13:13:07;;;;;;;3.22;1.77;;;18.10;74.60;;;;;;5023941;28;20108;-80
2021/10/18 13:15:33;;;;;;;2.50;1.70;;;18.00;75.40;;;;;;5029835;28;20032;-81
2021/10/18 13:17:59;;;;;;;2.35;1.45;;;17.90;76.40;;;;;;5024831;28;20062;-80
2021/10/18 13:20:26;;;;;;;3.42;2.03;;;17.80;76.50;;;;;;5022632;28;20095;-80
2021/10/18 13:22:54;;;;;;;2.92;1.50;;;17.80;76.60;;;;;;5023943;28;20045;-79
2021/10/18 13:25:22;;;;;;;4.53;1.77;;;17.80;77.40;;;;;;5030061;28;20048;-80
2021/10/18 13:27:48;;;;;;;1.80;0.98;;;17.90;76.70;;;;;;5029582;28;20120;-80
2021/10/18 13:30:15;;;;;;;2.63;1.42;;;17.90;75.70;;;;;;5016496;28;20121;-80
2021/10/18 13:32:42;;;;;;;2.22;1.08;;;17.90;75.60;;;;;;5021134;28;20195;-81
2021/10/18 13:35:08;;;;;;;1.70;1.13;;;17.90;75.70;;;;;;5015969;28;20026;-80
2021/10/18 13:37:34;;;;;;;3.80;1.95;;;17.90;74.00;;;;;;5026555;28;20085;-82
2021/10/18 13:40:00;;;;;;;3.47;1.10;;;17.90;74.10;;;;;;5028727;28;20053;-79
2021/10/18 13:42:25;;;;;;;2.15;1.30;;;17.90;73.30;;;;;;5030017;28;20175;-80
2021/10/18 13:44:51;;;;;;;4.25;2.05;;;17.80;74.20;;;;;;5027854;28;20038;-80
2021/10/18 13:47:17;;;;;;;2.20;1.35;;;17.80;74.30;;;;;;5021985;28;20379;-80
2021/10/18 13:49:43;;;;;;;4.03;1.33;;;17.90;74.50;;;;;;5026972;28;20476;-81
2021/10/18 13:52:09;;;;;;;2.08;1.23;;;17.80;73.30;;;;;;5028805;28;20037;-79
2021/10/18 13:54:34;;;;;;;3.72;1.80;;;17.70;73.70;;;;;;5030205;28;20080;-80
2021/10/18 13:57:01;;;;;;;4.18;1.60;;;17.70;74.80;;;;;;5010250;28;20485;-79
2021/10/18 13:59:27;;;;;;;2.53;1.30;;;17.70;74.80;;;;;;5026923;28;20029;-79
2021/10/18 14:01:52;;;;;;;4.20;1.80;;;17.60;75.30;;;;;;5029631;28;20501;-79